sensor_id;sensor_type;location;lat;lon;timestamp;temperature;humidity
19220;DHT22;9744;49.364;7.484;2022-12-29T00:01:34;7.70;99.90
19220;DHT22;9744;49.364;7.484;2022-12-29T00:04:03;7.70;99.90
19220;DHT22;9744;49.364;7.484;2022-12-29T00:06:31;7.80;99.90
19220;DHT22;9744;49.364;7.484;2022-12-29T00:08:58;7.70;99.90
19220;DHT22;9744;49.364;7.484;2022-12-29T00:11:26;7.70;99.90
19220;DHT22;9744;49.364;7.484;2022-12-29T00:13:54;7.70;99.90
19220;DHT22;9744;49.364;7.484;2022-12-29T00:16:41;7.70;99.90
19220;DHT22;9744;49.364;7.484;2022-12-29T00:19:11;7.70;99.90
19220;DHT22;9744;49.364;7.484;2022-12-29T00:21:52;7.80;99.90
19220;DHT22;9744;49.364;7.484;2022-12-29T00:24:33;7.80;99.90
19220;DHT22;9744;49.364;7.484;2022-12-29T00:27:18;7.80;99.90
19220;DHT22;9744;49.364;7.484;2022-12-29T00:30:05;7.90;99.90
19220;DHT22;9744;49.364;7.484;2022-12-29T00:32:52;7.90;99.90
19220;DHT22;9744;49.364;7.484;2022-12-29T00:35:39;8.00;99.90
19220;DHT22;9744;49.364;7.484;2022-12-29T00:38:11;8.10;99.90
19220;DHT22;9744;49.364;7.484;2022-12-29T00:40:56;8.10;99.90
19220;DHT22;9744;49.364;7.484;2022-12-29T00:43:42;8.10;99.90
19220;DHT22;9744;49.364;7.484;2022-12-29T00:46:27;8.10;99.90
19220;DHT22;9744;49.364;7.484;2022-12-29T00:48:55;8.10;99.90
19220;DHT22;9744;49.364;7.484;2022-12-29T00:51:41;8.10;99.90
19220;DHT22;9744;49.364;7.484;2022-12-29T00:54:08;8.10;99.90
19220;DHT22;9744;49.364;7.484;2022-12-29T00:56:36;8.20;99.90
19220;DHT22;9744;49.364;7.484;2022-12-29T00:59:04;8.20;99.90
19220;DHT22;9744;49.364;7.484;2022-12-29T01:01:32;8.20;99.90
19220;DHT22;9744;49.364;7.484;2022-12-29T01:04:00;8.30;99.90
19220;DHT22;9744;49.364;7.484;2022-12-29T01:06:28;7.90;99.90
19220;DHT22;9744;49.364;7.484;2022-12-29T01:08:56;8.30;99.90
19220;DHT22;9744;49.364;7.484;2022-12-29T01:11:41;8.40;99.90
19220;DHT22;9744;49.364;7.484;2022-12-29T01:14:08;8.20;99.90
19220;DHT22;9744;49.364;7.484;2022-12-29T01:16:36;8.20;99.90
19220;DHT22;9744;49.364;7.484;2022-12-29T01:19:03;8.20;99.90
19220;DHT22;9744;49.364;7.484;2022-12-29T01:21:31;8.20;99.90
19220;DHT22;9744;49.364;7.484;2022-12-29T01:24:02;9.10;99.90
19220;DHT22;9744;49.364;7.484;2022-12-29T01:26:30;8.20;99.90
19220;DHT22;9744;49.364;7.484;2022-12-29T01:28:57;8.10;99.90
19220;DHT22;9744;49.364;7.484;2022-12-29T01:31:28;8.10;99.90
19220;DHT22;9744;49.364;7.484;2022-12-29T01:33:57;8.10;99.90
19220;DHT22;9744;49.364;7.484;2022-12-29T01:36:24;8.10;99.90
19220;DHT22;9744;49.364;7.484;2022-12-29T01:38:52;8.20;99.90
19220;DHT22;9744;49.364;7.484;2022-12-29T01:41:22;8.10;99.90
19220;DHT22;9744;49.364;7.484;2022-12-29T01:43:50;8.10;99.90
19220;DHT22;9744;49.364;7.484;2022-12-29T01:46:25;8.10;99.90
19220;DHT22;9744;49.364;7.484;2022-12-29T01:48:57;8.10;99.90
19220;DHT22;9744;49.364;7.484;2022-12-29T01:51:26;7.50;99.90
19220;DHT22;9744;49.364;7.484;2022-12-29T01:53:56;8.90;99.90
19220;DHT22;9744;49.364;7.484;2022-12-29T01:56:26;8.20;99.90
19220;DHT22;9744;49.364;7.484;2022-12-29T01:58:58;8.10;99.90
19220;DHT22;9744;49.364;7.484;2022-12-29T02:01:27;8.10;99.90
19220;DHT22;9744;49.364;7.484;2022-12-29T02:03:55;8.10;99.90
19220;DHT22;9744;49.364;7.484;2022-12-29T02:06:26;8.10;99.90
19220;DHT22;9744;49.364;7.484;2022-12-29T02:08:56;8.20;99.90
19220;DHT22;9744;49.364;7.484;2022-12-29T02:11:26;8.20;99.90
19220;DHT22;9744;49.364;7.484;2022-12-29T02:13:54;8.20;99.90
19220;DHT22;9744;49.364;7.484;2022-12-29T02:16:31;8.20;99.90
19220;DHT22;9744;49.364;7.484;2022-12-29T02:22:15;8.30;99.90
19220;DHT22;9744;49.364;7.484;2022-12-29T02:25:14;8.30;99.90
19220;DHT22;9744;49.364;7.484;2022-12-29T02:27:51;8.40;99.90
19220;DHT22;9744;49.364;7.484;2022-12-29T02:30:42;8.30;99.90
19220;DHT22;9744;49.364;7.484;2022-12-29T02:33:21;8.40;99.90
19220;DHT22;9744;49.364;7.484;2022-12-29T02:35:57;8.40;99.90
19220;DHT22;9744;49.364;7.484;2022-12-29T02:38:40;8.40;99.90
19220;DHT22;9744;49.364;7.484;2022-12-29T02:41:18;8.40;99.90
19220;DHT22;9744;49.364;7.484;2022-12-29T02:43:50;8.40;99.90
19220;DHT22;9744;49.364;7.484;2022-12-29T02:46:24;8.40;99.90
19220;DHT22;9744;49.364;7.484;2022-12-29T02:49:01;8.50;99.90
19220;DHT22;9744;49.364;7.484;2022-12-29T02:51:39;8.40;99.90
19220;DHT22;9744;49.364;7.484;2022-12-29T02:54:07;8.40;99.90
19220;DHT22;9744;49.364;7.484;2022-12-29T02:56:52;8.40;99.90
19220;DHT22;9744;49.364;7.484;2022-12-29T02:59:20;8.50;99.90
19220;DHT22;9744;49.364;7.484;2022-12-29T03:05:05;8.50;99.90
19220;DHT22;9744;49.364;7.484;2022-12-29T03:07:43;8.40;99.90
19220;DHT22;9744;49.364;7.484;2022-12-29T03:10:19;8.50;99.90
19220;DHT22;9744;49.364;7.484;2022-12-29T03:12:56;8.50;99.90
19220;DHT22;9744;49.364;7.484;2022-12-29T03:15:50;8.50;99.90
19220;DHT22;9744;49.364;7.484;2022-12-29T03:18:37;8.50;99.90
19220;DHT22;9744;49.364;7.484;2022-12-29T03:21:12;8.50;99.90
19220;DHT22;9744;49.364;7.484;2022-12-29T03:23:44;8.50;99.90
19220;DHT22;9744;49.364;7.484;2022-12-29T03:26:15;8.60;99.90
19220;DHT22;9744;49.364;7.484;2022-12-29T03:28:47;8.50;99.90
19220;DHT22;9744;49.364;7.484;2022-12-29T03:31:22;8.60;99.90
19220;DHT22;9744;49.364;7.484;2022-12-29T03:33:55;8.60;99.90
19220;DHT22;9744;49.364;7.484;2022-12-29T03:36:27;8.60;99.90
19220;DHT22;9744;49.364;7.484;2022-12-29T03:39:01;8.60;99.90
19220;DHT22;9744;49.364;7.484;2022-12-29T03:41:31;8.60;99.90
19220;DHT22;9744;49.364;7.484;2022-12-29T03:44:02;8.60;99.90
19220;DHT22;9744;49.364;7.484;2022-12-29T03:46:30;8.60;99.90
19220;DHT22;9744;49.364;7.484;2022-12-29T03:48:59;8.60;99.90
19220;DHT22;9744;49.364;7.484;2022-12-29T03:54:05;8.60;99.90
19220;DHT22;9744;49.364;7.484;2022-12-29T03:59:43;8.60;99.90
19220;DHT22;9744;49.364;7.484;2022-12-29T04:02:11;8.60;99.90
19220;DHT22;9744;49.364;7.484;2022-12-29T04:04:40;8.70;99.90
19220;DHT22;9744;49.364;7.484;2022-12-29T04:07:07;8.80;99.90
19220;DHT22;9744;49.364;7.484;2022-12-29T04:09:35;8.80;99.90
19220;DHT22;9744;49.364;7.484;2022-12-29T04:17:49;8.90;99.90
19220;DHT22;9744;49.364;7.484;2022-12-29T04:26:33;9.00;99.90
19220;DHT22;9744;49.364;7.484;2022-12-29T04:32:05;8.90;99.90
19220;DHT22;9744;49.364;7.484;2022-12-29T04:34:36;8.90;99.90
19220;DHT22;9744;49.364;7.484;2022-12-29T04:37:03;8.90;99.90
19220;DHT22;9744;49.364;7.484;2022-12-29T04:39:31;8.90;99.90
19220;DHT22;9744;49.364;7.484;2022-12-29T04:45:00;8.90;99.90
19220;DHT22;9744;49.364;7.484;2022-12-29T04:47:50;8.90;99.90
19220;DHT22;9744;49.364;7.484;2022-12-29T04:50:48;9.00;99.90
19220;DHT22;9744;49.364;7.484;2022-12-29T04:53:21;9.00;99.90
19220;DHT22;9744;49.364;7.484;2022-12-29T04:59:02;9.00;99.90
19220;DHT22;9744;49.364;7.484;2022-12-29T05:07:07;8.90;99.90
19220;DHT22;9744;49.364;7.484;2022-12-29T05:12:17;9.00;99.90
19220;DHT22;9744;49.364;7.484;2022-12-29T05:18:01;9.00;99.90
19220;DHT22;9744;49.364;7.484;2022-12-29T05:20:29;9.00;99.90
19220;DHT22;9744;49.364;7.484;2022-12-29T05:34:30;8.80;99.90
19220;DHT22;9744;49.364;7.484;2022-12-29T05:36:58;8.90;99.90
19220;DHT22;9744;49.364;7.484;2022-12-29T05:45:17;9.00;99.90
19220;DHT22;9744;49.364;7.484;2022-12-29T06:40:08;9.10;99.90
19220;DHT22;9744;49.364;7.484;2022-12-29T06:48:17;9.50;99.90
19220;DHT22;9744;49.364;7.484;2022-12-29T06:50:53;9.60;99.90
19220;DHT22;9744;49.364;7.484;2022-12-29T07:01:55;9.60;99.90
19220;DHT22;9744;49.364;7.484;2022-12-29T07:04:32;9.60;99.90
19220;DHT22;9744;49.364;7.484;2022-12-29T07:06:59;9.60;99.90
19220;DHT22;9744;49.364;7.484;2022-12-29T07:09:27;9.50;99.90
19220;DHT22;9744;49.364;7.484;2022-12-29T07:11:54;9.50;99.90
19220;DHT22;9744;49.364;7.484;2022-12-29T07:14:21;9.50;99.90
19220;DHT22;9744;49.364;7.484;2022-12-29T07:16:49;9.50;99.90
19220;DHT22;9744;49.364;7.484;2022-12-29T07:19:23;9.50;99.90
19220;DHT22;9744;49.364;7.484;2022-12-29T07:21:54;9.50;99.90
19220;DHT22;9744;49.364;7.484;2022-12-29T07:30:07;9.60;99.90
19220;DHT22;9744;49.364;7.484;2022-12-29T07:38:13;9.60;99.90
19220;DHT22;9744;49.364;7.484;2022-12-29T07:40:42;9.60;99.90
19220;DHT22;9744;49.364;7.484;2022-12-29T07:43:09;9.60;99.90
19220;DHT22;9744;49.364;7.484;2022-12-29T07:45:43;9.60;99.90
19220;DHT22;9744;49.364;7.484;2022-12-29T07:51:17;9.60;99.90
19220;DHT22;9744;49.364;7.484;2022-12-29T08:00:40;9.30;99.90
19220;DHT22;9744;49.364;7.484;2022-12-29T08:12:07;9.40;99.90
19220;DHT22;9744;49.364;7.484;2022-12-29T08:18:05;9.40;99.90
19220;DHT22;9744;49.364;7.484;2022-12-29T08:20:34;9.40;99.90
19220;DHT22;9744;49.364;7.484;2022-12-29T08:31:35;8.80;99.90
19220;DHT22;9744;49.364;7.484;2022-12-29T09:48:34;9.00;99.90
19220;DHT22;9744;49.364;7.484;2022-12-29T09:57:07;9.00;99.90
19220;DHT22;9744;49.364;7.484;2022-12-29T10:09:11;9.10;99.90
19220;DHT22;9744;49.364;7.484;2022-12-29T10:20:31;9.20;99.90
19220;DHT22;9744;49.364;7.484;2022-12-29T10:23:14;9.20;99.90
19220;DHT22;9744;49.364;7.484;2022-12-29T10:25:49;9.20;99.90
19220;DHT22;9744;49.364;7.484;2022-12-29T10:28:24;9.10;99.90
19220;DHT22;9744;49.364;7.484;2022-12-29T10:30:53;9.00;99.90
19220;DHT22;9744;49.364;7.484;2022-12-29T10:36:27;8.70;99.90
19220;DHT22;9744;49.364;7.484;2022-12-29T10:39:04;8.60;99.90
19220;DHT22;9744;49.364;7.484;2022-12-29T10:41:48;8.50;99.90
19220;DHT22;9744;49.364;7.484;2022-12-29T10:44:29;8.50;99.90
19220;DHT22;9744;49.364;7.484;2022-12-29T21:19:55;6.60;99.90
19220;DHT22;9744;49.364;7.484;2022-12-29T21:22:22;6.60;99.90
19220;DHT22;9744;49.364;7.484;2022-12-29T21:24:49;6.60;99.90
19220;DHT22;9744;49.364;7.484;2022-12-29T21:27:17;6.60;99.90
19220;DHT22;9744;49.364;7.484;2022-12-29T21:29:44;6.70;99.90
19220;DHT22;9744;49.364;7.484;2022-12-29T21:32:11;6.60;99.90
19220;DHT22;9744;49.364;7.484;2022-12-29T21:34:38;6.60;99.90
19220;DHT22;9744;49.364;7.484;2022-12-29T21:42:44;6.60;99.90
19220;DHT22;9744;49.364;7.484;2022-12-29T21:45:11;6.60;99.90
19220;DHT22;9744;49.364;7.484;2022-12-29T21:47:58;6.60;99.90
19220;DHT22;9744;49.364;7.484;2022-12-29T21:50:44;6.60;99.90
19220;DHT22;9744;49.364;7.484;2022-12-29T21:53:26;6.60;99.90
19220;DHT22;9744;49.364;7.484;2022-12-29T21:56:04;6.70;99.90
19220;DHT22;9744;49.364;7.484;2022-12-29T21:58:34;6.60;99.90
19220;DHT22;9744;49.364;7.484;2022-12-29T22:01:19;6.60;99.90
19220;DHT22;9744;49.364;7.484;2022-12-29T22:04:04;6.70;99.90
19220;DHT22;9744;49.364;7.484;2022-12-29T22:06:49;6.70;99.90
19220;DHT22;9744;49.364;7.484;2022-12-29T22:09:34;6.70;99.90
19220;DHT22;9744;49.364;7.484;2022-12-29T22:12:23;6.60;99.90
19220;DHT22;9744;49.364;7.484;2022-12-29T22:15:10;6.70;99.90
19220;DHT22;9744;49.364;7.484;2022-12-29T22:17:37;6.60;99.90
19220;DHT22;9744;49.364;7.484;2022-12-29T22:20:05;6.60;99.90
19220;DHT22;9744;49.364;7.484;2022-12-29T22:22:32;6.60;99.90
19220;DHT22;9744;49.364;7.484;2022-12-29T22:24:59;6.60;99.90
19220;DHT22;9744;49.364;7.484;2022-12-29T22:27:27;6.60;99.90
19220;DHT22;9744;49.364;7.484;2022-12-29T22:29:54;6.60;99.90
19220;DHT22;9744;49.364;7.484;2022-12-29T22:32:23;6.50;99.90
19220;DHT22;9744;49.364;7.484;2022-12-29T22:34:50;6.50;99.90
19220;DHT22;9744;49.364;7.484;2022-12-29T22:37:17;6.50;99.90
19220;DHT22;9744;49.364;7.484;2022-12-29T22:39:44;6.50;99.90
19220;DHT22;9744;49.364;7.484;2022-12-29T22:42:12;6.50;99.90
19220;DHT22;9744;49.364;7.484;2022-12-29T22:44:39;6.50;99.90
19220;DHT22;9744;49.364;7.484;2022-12-29T22:47:06;6.50;99.90
19220;DHT22;9744;49.364;7.484;2022-12-29T22:49:34;6.40;99.90
19220;DHT22;9744;49.364;7.484;2022-12-29T22:52:02;6.50;99.90
19220;DHT22;9744;49.364;7.484;2022-12-29T22:54:29;6.40;99.90
19220;DHT22;9744;49.364;7.484;2022-12-29T22:56:56;6.40;99.90
19220;DHT22;9744;49.364;7.484;2022-12-29T22:59:23;6.30;99.90
19220;DHT22;9744;49.364;7.484;2022-12-29T23:01:51;6.20;99.90
19220;DHT22;9744;49.364;7.484;2022-12-29T23:04:18;6.20;99.90
19220;DHT22;9744;49.364;7.484;2022-12-29T23:06:46;6.10;99.90
19220;DHT22;9744;49.364;7.484;2022-12-29T23:09:17;6.10;99.90
19220;DHT22;9744;49.364;7.484;2022-12-29T23:11:46;6.10;99.90
19220;DHT22;9744;49.364;7.484;2022-12-29T23:14:14;6.00;99.90
19220;DHT22;9744;49.364;7.484;2022-12-29T23:16:42;6.00;99.90
19220;DHT22;9744;49.364;7.484;2022-12-29T23:19:09;6.00;99.90
19220;DHT22;9744;49.364;7.484;2022-12-29T23:21:37;6.00;99.90
19220;DHT22;9744;49.364;7.484;2022-12-29T23:24:07;5.90;99.90
19220;DHT22;9744;49.364;7.484;2022-12-29T23:26:39;6.00;99.90
19220;DHT22;9744;49.364;7.484;2022-12-29T23:29:08;6.00;99.90
19220;DHT22;9744;49.364;7.484;2022-12-29T23:31:36;6.10;99.90
19220;DHT22;9744;49.364;7.484;2022-12-29T23:34:04;6.10;99.90
19220;DHT22;9744;49.364;7.484;2022-12-29T23:36:32;6.10;99.90
19220;DHT22;9744;49.364;7.484;2022-12-29T23:38:59;6.00;99.90
19220;DHT22;9744;49.364;7.484;2022-12-29T23:41:28;6.10;99.90
19220;DHT22;9744;49.364;7.484;2022-12-29T23:43:55;6.10;99.90
19220;DHT22;9744;49.364;7.484;2022-12-29T23:46:24;6.10;99.90
19220;DHT22;9744;49.364;7.484;2022-12-29T23:48:52;6.00;99.90
19220;DHT22;9744;49.364;7.484;2022-12-29T23:51:19;6.10;99.90
19220;DHT22;9744;49.364;7.484;2022-12-29T23:53:46;6.00;99.90
19220;DHT22;9744;49.364;7.484;2022-12-29T23:56:16;6.00;99.90
19220;DHT22;9744;49.364;7.484;2022-12-29T23:58:45;5.90;99.90
